Time,TemperatureF,DewpointF,PressureIn,WindDirection,WindDirectionDegrees,WindSpeedMPH,WindSpeedGustMPH,Humidity,HourlyPrecipIn,Conditions,Clouds,dailyrainin,SolarRadiationWatts/m^2,SoftwareType,DateUTC
2013-07-08 00:01:00,72.1,70.0,29.99,South,191,0.0,1.0,93,0.00,,,0.03,0,Wunderground v.1.15,2013-07-08 04:01:00,
2013-07-08 00:02:00,72.1,70.0,29.99,South,191,0.0,1.0,93,0.00,,,0.03,0,Wunderground v.1.15,2013-07-08 04:02:00,
2013-07-08 00:03:00,72.1,70.0,29.99,South,191,0.0,-999.0,93,-99.99,,,0.03,,weatherlink.com 1.10,2013-07-08 04:03:00,
2013-07-08 00:05:00,72.1,70.3,29.99,South,191,0.0,1.0,94,0.00,,,0.03,0,Wunderground v.1.15,2013-07-08 04:05:00,
2013-07-08 00:06:00,72.1,70.0,29.99,South,191,0.0,1.0,93,0.00,,,0.03,0,Wunderground v.1.15,2013-07-08 04:06:00,
2013-07-08 00:11:00,72.1,70.0,29.99,South,191,0.0,1.0,93,0.00,,,0.03,0,Wunderground v.1.15,2013-07-08 04:11:00,
2013-07-08 00:16:00,72.1,70.0,29.99,South,191,0.0,1.0,93,0.00,,,0.03,0,Wunderground v.1.15,2013-07-08 04:16:00,
2013-07-08 00:22:00,72.0,69.9,29.99,South,191,0.0,1.0,93,0.00,,,0.03,0,Wunderground v.1.15,2013-07-08 04:22:00,
2013-07-08 00:28:00,72.0,69.9,30.00,South,191,0.0,1.0,93,0.00,,,0.03,0,Wunderground v.1.15,2013-07-08 04:28:00,
2013-07-08 00:34:00,72.0,69.9,30.00,South,191,0.0,1.0,93,0.00,,,0.03,0,Wunderground v.1.15,2013-07-08 04:34:00,
2013-07-08 00:40:00,72.0,69.9,30.00,South,191,0.0,1.0,93,0.00,,,0.00,0,Wunderground v.1.15,2013-07-08 04:40:00,
2013-07-08 00:45:00,71.9,69.4,30.00,SW,217,0.0,1.0,92,0.00,,,0.00,0,Wunderground v.1.15,2013-07-08 04:45:00,
2013-07-08 00:51:00,72.0,69.5,30.00,SW,217,0.0,1.0,92,0.00,,,0.00,0,Wunderground v.1.15,2013-07-08 04:51:00,
2013-07-08 00:57:00,72.0,69.5,30.00,SW,217,0.0,1.0,92,0.00,,,0.00,0,Wunderground v.1.15,2013-07-08 04:57:00,
2013-07-08 01:02:00,72.1,69.0,29.99,SW,217,0.0,-999.0,91,-99.99,,,0.00,,weatherlink.com 1.10,2013-07-08 05:02:00,
2013-07-08 01:07:00,72.2,69.4,29.99,SW,217,0.0,3.0,91,0.00,,,0.00,0,Wunderground v.1.15,2013-07-08 05:07:00,
2013-07-08 01:13:00,72.2,69.1,29.99,SSW,200,2.0,3.0,90,0.00,,,0.00,0,Wunderground v.1.15,2013-07-08 05:13:00,
2013-07-08 01:19:00,72.2,69.1,29.99,SSW,194,1.0,3.0,90,0.00,,,0.00,0,Wunderground v.1.15,2013-07-08 05:19:00,
2013-07-08 01:25:00,72.3,68.9,29.99,SSW,194,1.0,2.0,89,0.00,,,0.00,0,Wunderground v.1.15,2013-07-08 05:25:00,
2013-07-08 01:31:00,72.4,69.0,29.99,SSW,194,1.0,3.0,89,0.00,,,0.00,0,Wunderground v.1.15,2013-07-08 05:31:00,
2013-07-08 01:37:00,72.5,68.7,29.99,SSW,194,1.0,3.0,88,0.00,,,0.00,0,Wunderground v.1.15,2013-07-08 05:37:00,
2013-07-08 01:43:00,72.4,68.6,29.99,SSW,194,0.0,1.0,88,0.00,,,0.00,0,Wunderground v.1.15,2013-07-08 05:43:00,
2013-07-08 01:48:00,72.3,69.0,30.00,SSW,194,0.0,-999.0,89,-99.99,,,0.00,,weatherlink.com 1.10,2013-07-08 05:48:00,
2013-07-08 01:54:00,72.1,69.0,29.99,SSW,194,0.0,1.0,90,0.00,,,0.00,0,Wunderground v.1.15,2013-07-08 05:54:00,
2013-07-08 02:00:00,71.9,68.8,30.00,SSW,194,0.0,0.0,90,0.00,,,0.00,0,Wunderground v.1.15,2013-07-08 06:00:00,
2013-07-08 02:06:00,71.7,68.6,30.00,SSW,194,0.0,5.0,90,0.00,,,0.00,0,Wunderground v.1.15,2013-07-08 06:06:00,
2013-07-08 02:12:00,71.6,68.5,30.00,SSW,194,0.0,5.0,90,0.00,,,0.00,0,Wunderground v.1.15,2013-07-08 06:12:00,
2013-07-08 02:18:00,71.5,68.4,29.99,SSW,194,0.0,5.0,90,0.00,,,0.00,0,Wunderground v.1.15,2013-07-08 06:18:00,
2013-07-08 02:24:00,71.6,68.5,29.99,SSW,194,0.0,5.0,90,0.00,,,0.00,0,Wunderground v.1.15,2013-07-08 06:24:00,
2013-07-08 02:30:00,71.6,68.2,29.99,SSW,194,0.0,5.0,89,0.00,,,0.00,0,Wunderground v.1.15,2013-07-08 06:30:00,
2013-07-08 02:36:00,71.5,68.1,29.99,SSW,194,0.0,5.0,89,0.00,,,0.00,0,Wunderground v.1.15,2013-07-08 06:36:00,
2013-07-08 02:42:00,71.5,68.4,29.99,SSW,194,0.0,5.0,90,0.00,,,0.00,0,Wunderground v.1.15,2013-07-08 06:42:00,
2013-07-08 02:47:00,71.3,68.0,29.98,SSW,194,0.0,-999.0,90,-99.99,,,0.00,,weatherlink.com 1.10,2013-07-08 06:47:00,
2013-07-08 02:52:00,71.2,68.1,29.99,SSW,194,0.0,5.0,90,0.00,,,0.00,0,Wunderground v.1.15,2013-07-08 06:52:00,
2013-07-08 02:58:00,71.2,67.8,29.99,SSW,194,0.0,5.0,89,0.00,,,0.00,0,Wunderground v.1.15,2013-07-08 06:58:00,
2013-07-08 03:04:00,71.3,67.9,29.99,SSW,194,0.0,3.0,89,0.00,,,0.00,0,Wunderground v.1.15,2013-07-08 07:04:00,
2013-07-08 03:09:00,71.3,67.9,29.99,SSW,194,0.0,3.0,89,0.00,,,0.00,0,Wunderground v.1.15,2013-07-08 07:09:00,
2013-07-08 03:14:00,71.3,67.6,29.99,SSW,194,0.0,3.0,88,0.00,,,0.00,0,Wunderground v.1.15,2013-07-08 07:14:00,
2013-07-08 03:20:00,71.5,67.8,29.99,SSW,194,0.0,3.0,88,0.00,,,0.00,0,Wunderground v.1.15,2013-07-08 07:20:00,
2013-07-08 03:25:00,71.6,67.5,29.99,SSW,194,1.0,3.0,87,0.00,,,0.00,0,Wunderground v.1.15,2013-07-08 07:25:00,
2013-07-08 03:32:00,71.8,68.0,29.99,SSW,194,0.0,-999.0,87,-99.99,,,0.00,,weatherlink.com 1.10,2013-07-08 07:32:00,
2013-07-08 03:37:00,71.9,67.5,29.99,West,259,1.0,4.0,86,0.00,,,0.00,0,Wunderground v.1.15,2013-07-08 07:37:00,
2013-07-08 03:43:00,72.1,67.7,29.99,WSW,254,2.0,3.0,86,0.00,,,0.00,0,Wunderground v.1.15,2013-07-08 07:43:00,
2013-07-08 03:49:00,72.2,67.8,29.98,West,262,3.0,6.0,86,0.00,,,0.00,0,Wunderground v.1.15,2013-07-08 07:49:00,
2013-07-08 03:55:00,72.3,67.5,29.99,WSW,242,5.0,7.0,85,0.00,,,0.00,0,Wunderground v.1.15,2013-07-08 07:55:00,
2013-07-08 04:00:00,72.3,67.5,29.99,SW,219,7.0,7.0,85,0.00,,,0.00,0,Wunderground v.1.15,2013-07-08 08:00:00,
2013-07-08 04:06:00,71.7,66.9,29.98,WSW,238,9.0,16.0,85,0.23,,,0.05,0,Wunderground v.1.15,2013-07-08 08:06:00,
2013-07-08 04:12:00,69.7,65.7,29.98,SW,215,10.0,14.0,87,0.13,,,0.06,0,Wunderground v.1.15,2013-07-08 08:12:00,
2013-07-08 04:18:00,68.8,65.7,29.99,SW,214,11.0,15.0,90,0.11,,,0.07,0,Wunderground v.1.15,2013-07-08 08:18:00,
2013-07-08 04:24:00,69.9,65.5,29.98,SW,224,11.0,19.0,86,0.06,,,0.08,0,Wunderground v.1.15,2013-07-08 08:24:00,
2013-07-08 04:29:00,70.7,65.6,29.99,South,189,14.0,21.0,84,0.09,,,0.09,0,Wunderground v.1.15,2013-07-08 08:29:00,
2013-07-08 04:35:00,71.5,62.8,29.99,WNW,284,16.0,25.0,74,2.55,,,0.14,0,Wunderground v.1.15,2013-07-08 08:35:00,
2013-07-08 04:41:00,70.9,63.7,30.00,SW,229,9.0,10.0,78,0.15,,,0.17,0,Wunderground v.1.15,2013-07-08 08:41:00,
2013-07-08 04:46:00,72.2,65.3,30.00,SSW,203,6.0,15.0,79,0.07,,,0.17,0,Wunderground v.1.15,2013-07-08 08:46:00,
2013-07-08 04:52:00,71.9,65.8,30.00,SSW,213,5.0,6.0,81,0.04,,,0.17,0,Wunderground v.1.15,2013-07-08 08:52:00,
2013-07-08 04:57:00,72.0,65.8,30.00,SSW,199,3.0,6.0,81,0.00,,,0.17,0,Wunderground v.1.15,2013-07-08 08:57:00,
2013-07-08 05:03:00,71.7,66.0,29.99,SSW,195,0.0,-999.0,82,-99.99,,,0.17,,weatherlink.com 1.10,2013-07-08 09:03:00,
2013-07-08 05:08:00,71.5,66.8,29.99,SSW,200,1.0,30.0,85,0.00,,,0.17,0,Wunderground v.1.15,2013-07-08 09:08:00,
2013-07-08 05:14:00,71.3,66.6,29.99,SSW,196,2.0,30.0,85,0.00,,,0.17,0,Wunderground v.1.15,2013-07-08 09:14:00,
2013-07-08 05:20:00,71.1,66.7,29.99,SW,227,1.0,1.0,86,0.00,,,0.17,0,Wunderground v.1.15,2013-07-08 09:20:00,
2013-07-08 05:26:00,71.0,66.9,29.99,SSW,210,1.0,30.0,87,0.00,,,0.17,0,Wunderground v.1.15,2013-07-08 09:26:00,
2013-07-08 05:32:00,70.7,66.6,29.99,SW,229,1.0,30.0,87,0.00,,,0.17,0,Wunderground v.1.15,2013-07-08 09:32:00,
2013-07-08 05:37:00,70.4,66.7,29.99,SW,229,1.0,30.0,88,0.00,,,0.17,0,Wunderground v.1.15,2013-07-08 09:37:00,
2013-07-08 05:43:00,70.2,66.8,29.99,SSW,196,2.0,30.0,89,0.00,,,0.17,0,Wunderground v.1.15,2013-07-08 09:43:00,
2013-07-08 05:48:00,70.0,66.6,29.99,SW,229,2.0,30.0,89,0.00,,,0.17,0,Wunderground v.1.15,2013-07-08 09:48:00,
2013-07-08 05:54:00,69.9,66.5,29.98,SW,225,2.0,30.0,89,0.00,,,0.17,0,Wunderground v.1.15,2013-07-08 09:54:00,
2013-07-08 05:59:00,69.8,66.4,29.98,WSW,250,2.0,30.0,89,0.00,,,0.17,0,Wunderground v.1.15,2013-07-08 09:59:00,
2013-07-08 06:04:00,69.8,66.4,29.98,SW,225,1.0,7.0,89,0.00,,,0.17,0,Wunderground v.1.15,2013-07-08 10:04:00,
2013-07-08 06:09:00,69.6,66.2,29.98,SSW,196,1.0,7.0,89,0.00,,,0.17,0,Wunderground v.1.15,2013-07-08 10:09:00,
2013-07-08 06:15:00,69.6,66.2,29.98,SSW,206,1.0,7.0,89,0.00,,,0.17,0,Wunderground v.1.15,2013-07-08 10:15:00,
2013-07-08 06:21:00,69.6,66.2,29.98,SW,218,1.0,7.0,89,0.00,,,0.17,5,Wunderground v.1.15,2013-07-08 10:21:00,
2013-07-08 06:27:00,69.6,66.2,29.98,SW,221,1.0,7.0,89,0.00,,,0.17,7,Wunderground v.1.15,2013-07-08 10:27:00,
2013-07-08 06:32:00,69.6,66.0,29.98,SSW,211,0.0,-999.0,89,-99.99,,,0.17,,weatherlink.com 1.10,2013-07-08 10:32:00,
2013-07-08 06:37:00,69.5,66.1,29.98,SSW,213,1.0,7.0,89,0.00,,,0.17,12,Wunderground v.1.15,2013-07-08 10:37:00,
2013-07-08 06:43:00,69.5,66.1,29.98,SW,217,0.0,7.0,89,0.00,,,0.17,16,Wunderground v.1.15,2013-07-08 10:43:00,
2013-07-08 06:49:00,69.4,66.3,29.98,South,172,0.0,7.0,90,0.00,,,0.17,23,Wunderground v.1.15,2013-07-08 10:49:00,
2013-07-08 06:55:00,69.5,66.4,29.98,SW,217,0.0,7.0,90,0.00,,,0.17,37,Wunderground v.1.15,2013-07-08 10:55:00,
2013-07-08 07:00:00,69.7,66.6,29.98,SW,232,0.0,0.0,90,0.00,,,0.17,46,Wunderground v.1.15,2013-07-08 11:00:00,
2013-07-08 07:06:00,69.9,66.8,29.99,SW,217,0.0,5.0,90,0.00,,,0.17,58,Wunderground v.1.15,2013-07-08 11:06:00,
2013-07-08 07:12:00,70.2,67.1,29.99,SSW,205,1.0,5.0,90,0.00,,,0.17,70,Wunderground v.1.15,2013-07-08 11:12:00,
2013-07-08 07:17:00,70.4,67.3,29.99,WSW,240,3.0,5.0,90,0.00,,,0.17,79,Wunderground v.1.15,2013-07-08 11:17:00,
2013-07-08 07:23:00,70.7,67.3,29.99,SW,234,2.0,5.0,89,0.00,,,0.17,97,Wunderground v.1.15,2013-07-08 11:23:00,
2013-07-08 07:29:00,71.0,67.6,30.00,West,261,2.0,5.0,89,0.00,,,0.17,114,Wunderground v.1.15,2013-07-08 11:29:00,
2013-07-08 07:34:00,71.3,67.9,30.00,WSW,240,2.0,5.0,89,0.00,,,0.17,130,Wunderground v.1.15,2013-07-08 11:34:00,
2013-07-08 07:40:00,71.5,68.1,30.00,SSW,208,1.0,1.0,89,0.00,,,0.17,149,Wunderground v.1.15,2013-07-08 11:40:00,
2013-07-08 07:45:00,71.7,68.0,30.00,WSW,245,1.0,5.0,88,0.00,,,0.17,155,Wunderground v.1.15,2013-07-08 11:45:00,
2013-07-08 07:51:00,71.9,68.2,30.00,SW,222,2.0,3.0,88,0.00,,,0.17,174,Wunderground v.1.15,2013-07-08 11:51:00,
2013-07-08 07:57:00,72.2,68.4,30.00,SW,236,2.0,5.0,88,0.00,,,0.17,200,Wunderground v.1.15,2013-07-08 11:57:00,
2013-07-08 08:03:00,72.5,68.7,30.00,WSW,248,1.0,10.0,88,0.00,,,0.17,204,Wunderground v.1.15,2013-07-08 12:03:00,
2013-07-08 08:09:00,72.9,69.1,30.01,SW,217,1.0,10.0,88,0.00,,,0.17,218,Wunderground v.1.15,2013-07-08 12:09:00,
2013-07-08 08:14:00,73.2,69.1,30.00,SW,218,2.0,10.0,87,0.00,,,0.17,230,Wunderground v.1.15,2013-07-08 12:14:00,
2013-07-08 08:20:00,73.6,69.5,30.00,SW,235,2.0,10.0,87,0.00,,,0.17,250,Wunderground v.1.15,2013-07-08 12:20:00,
2013-07-08 08:26:00,74.0,69.5,30.00,WSW,243,4.0,10.0,86,0.00,,,0.17,264,Wunderground v.1.15,2013-07-08 12:26:00,
2013-07-08 08:32:00,74.3,70.0,30.00,SW,230,6.0,-999.0,85,-99.99,,,0.17,,weatherlink.com 1.10,2013-07-08 12:32:00,
2013-07-08 08:38:00,74.7,69.9,30.00,SW,230,4.0,10.0,85,0.00,,,0.17,306,Wunderground v.1.15,2013-07-08 12:38:00,
2013-07-08 08:43:00,74.9,70.1,30.00,SW,228,3.0,10.0,85,0.00,,,0.17,320,Wunderground v.1.15,2013-07-08 12:43:00,
2013-07-08 08:49:00,75.2,70.0,30.00,West,259,4.0,10.0,84,0.00,,,0.17,339,Wunderground v.1.15,2013-07-08 12:49:00,
2013-07-08 08:55:00,75.5,70.3,30.00,West,269,4.0,10.0,84,0.00,,,0.17,357,Wunderground v.1.15,2013-07-08 12:55:00,
2013-07-08 09:00:00,75.9,70.4,30.00,WSW,237,3.0,5.0,83,0.00,,,0.17,374,Wunderground v.1.15,2013-07-08 13:00:00,
2013-07-08 09:06:00,76.1,70.6,30.00,SW,223,4.0,11.0,83,0.00,,,0.17,341,Wunderground v.1.15,2013-07-08 13:06:00,
2013-07-08 09:11:00,76.3,71.1,30.01,SW,230,3.0,5.0,84,0.00,,,0.17,408,Wunderground v.1.15,2013-07-08 13:11:00,
2013-07-08 09:16:00,76.6,70.7,30.00,SW,221,3.0,11.0,82,0.00,,,0.17,431,Wunderground v.1.15,2013-07-08 13:16:00,
2013-07-08 09:22:00,76.9,71.0,30.01,WSW,255,3.0,11.0,82,0.00,,,0.17,448,Wunderground v.1.15,2013-07-08 13:22:00,
2013-07-08 09:28:00,77.1,70.8,30.00,SW,227,3.0,11.0,81,0.00,,,0.17,457,Wunderground v.1.15,2013-07-08 13:28:00,
2013-07-08 09:34:00,77.3,71.0,30.00,SW,227,4.0,11.0,81,0.00,,,0.17,475,Wunderground v.1.15,2013-07-08 13:34:00,
2013-07-08 09:40:00,77.8,71.1,30.00,SW,229,3.0,3.0,80,0.00,,,0.17,555,Wunderground v.1.15,2013-07-08 13:40:00,
2013-07-08 09:46:00,78.1,71.1,30.01,SSW,209,4.0,11.0,79,0.00,,,0.17,325,Wunderground v.1.15,2013-07-08 13:46:00,
2013-07-08 09:52:00,78.1,71.4,30.01,West,269,3.0,11.0,80,0.00,,,0.17,418,Wunderground v.1.15,2013-07-08 13:52:00,
2013-07-08 09:58:00,78.2,71.2,30.01,SSW,203,1.0,11.0,79,0.00,,,0.17,243,Wunderground v.1.15,2013-07-08 13:58:00,
2013-07-08 10:04:00,78.5,71.4,30.00,SW,227,2.0,9.0,79,0.00,,,0.17,520,Wunderground v.1.15,2013-07-08 14:04:00,
2013-07-08 10:10:00,79.0,71.9,30.00,WSW,246,2.0,9.0,79,0.00,,,0.17,661,Wunderground v.1.15,2013-07-08 14:10:00,
2013-07-08 10:15:00,79.4,71.9,30.00,SSW,203,3.0,9.0,78,0.00,,,0.17,751,Wunderground v.1.15,2013-07-08 14:15:00,
2013-07-08 10:21:00,80.2,71.9,30.00,SSW,198,3.0,9.0,76,0.00,,,0.17,856,Wunderground v.1.15,2013-07-08 14:21:00,
2013-07-08 10:27:00,80.3,71.3,30.01,SW,223,4.0,10.0,74,0.00,,,0.17,283,Wunderground v.1.15,2013-07-08 14:27:00,
2013-07-08 10:32:00,79.9,71.7,30.01,SW,225,6.0,9.0,76,0.00,,,0.17,267,Wunderground v.1.15,2013-07-08 14:32:00,
2013-07-08 10:38:00,79.8,71.9,30.01,SW,222,5.0,9.0,77,0.00,,,0.17,362,Wunderground v.1.15,2013-07-08 14:38:00,
2013-07-08 10:43:00,79.8,71.6,30.00,SW,227,4.0,9.0,76,0.00,,,0.17,492,Wunderground v.1.15,2013-07-08 14:43:00,
2013-07-08 10:49:00,80.0,72.1,30.00,SSW,203,4.0,9.0,77,0.00,,,0.17,425,Wunderground v.1.15,2013-07-08 14:49:00,
2013-07-08 10:55:00,80.1,71.5,30.01,WSW,242,4.0,9.0,75,0.00,,,0.17,457,Wunderground v.1.15,2013-07-08 14:55:00,
2013-07-08 11:00:00,80.1,71.8,30.00,West,273,3.0,3.0,76,0.00,,,0.17,413,Wunderground v.1.15,2013-07-08 15:00:00,
2013-07-08 11:06:00,80.3,72.0,30.00,SW,227,1.0,13.0,76,0.00,,,0.17,475,Wunderground v.1.15,2013-07-08 15:06:00,
2013-07-08 11:12:00,80.6,71.9,30.00,SSW,200,2.0,13.0,75,0.00,,,0.17,478,Wunderground v.1.15,2013-07-08 15:12:00,
2013-07-08 11:18:00,80.4,72.0,30.00,WSW,237,0.0,-999.0,76,-99.99,,,0.17,,weatherlink.com 1.10,2013-07-08 15:18:00,
2013-07-08 11:23:00,80.5,72.2,30.00,SW,229,4.0,13.0,76,0.00,,,0.17,396,Wunderground v.1.15,2013-07-08 15:23:00,
2013-07-08 11:28:00,80.3,71.3,30.01,SW,220,4.0,14.0,74,0.00,,,0.17,408,Wunderground v.1.15,2013-07-08 15:28:00,
2013-07-08 11:34:00,80.2,70.8,30.01,West,273,6.0,13.0,73,0.00,,,0.17,452,Wunderground v.1.15,2013-07-08 15:34:00,
2013-07-08 11:39:00,80.5,71.0,30.01,West,263,6.0,13.0,73,0.00,,,0.17,468,Wunderground v.1.15,2013-07-08 15:39:00,
2013-07-08 11:40:00,80.5,71.0,30.01,WSW,246,6.0,13.0,73,0.00,,,0.17,754,Wunderground v.1.15,2013-07-08 15:40:00,
2013-07-08 11:45:00,80.7,70.8,30.01,WSW,255,6.0,18.0,72,0.00,,,0.17,408,Wunderground v.1.15,2013-07-08 15:45:00,
2013-07-08 11:51:00,80.8,70.9,30.01,West,268,7.0,13.0,72,0.00,,,0.17,784,Wunderground v.1.15,2013-07-08 15:51:00,
2013-07-08 11:57:00,81.1,70.8,30.01,West,268,5.0,13.0,71,0.00,,,0.17,555,Wunderground v.1.15,2013-07-08 15:57:00,
2013-07-08 12:02:00,81.1,71.0,30.01,WSW,253,3.0,-999.0,72,-99.99,,,0.17,,weatherlink.com 1.10,2013-07-08 16:02:00,
2013-07-08 12:08:00,80.9,70.6,30.01,West,277,5.0,16.0,71,0.00,,,0.17,603,Wunderground v.1.15,2013-07-08 16:08:00,
2013-07-08 12:14:00,81.1,71.2,30.01,WNW,294,6.0,16.0,72,0.00,,,0.17,805,Wunderground v.1.15,2013-07-08 16:14:00,
2013-07-08 12:19:00,81.2,71.3,30.01,WNW,285,6.0,16.0,72,0.00,,,0.17,624,Wunderground v.1.15,2013-07-08 16:19:00,
2013-07-08 12:25:00,81.1,71.6,30.01,West,279,5.0,16.0,73,0.00,,,0.17,779,Wunderground v.1.15,2013-07-08 16:25:00,
2013-07-08 12:31:00,81.8,72.3,30.01,WSW,246,3.0,16.0,73,0.00,,,0.17,896,Wunderground v.1.15,2013-07-08 16:31:00,
2013-07-08 12:37:00,81.9,72.4,30.00,West,263,3.0,16.0,73,0.00,,,0.17,438,Wunderground v.1.15,2013-07-08 16:37:00,
2013-07-08 12:43:00,81.8,72.7,30.01,WNW,284,3.0,16.0,74,0.00,,,0.17,352,Wunderground v.1.15,2013-07-08 16:43:00,
2013-07-08 12:48:00,81.6,72.0,30.01,WSW,248,3.0,-999.0,73,-99.99,,,0.17,,weatherlink.com 1.10,2013-07-08 16:48:00,
2013-07-08 12:53:00,81.4,71.9,30.01,WSW,238,2.0,16.0,73,0.00,,,0.17,302,Wunderground v.1.15,2013-07-08 16:53:00,
2013-07-08 12:58:00,81.2,71.7,30.01,SW,233,2.0,16.0,73,0.00,,,0.17,325,Wunderground v.1.15,2013-07-08 16:58:00,
2013-07-08 13:04:00,81.0,71.5,30.01,West,281,2.0,15.0,73,0.00,,,0.17,325,Wunderground v.1.15,2013-07-08 17:04:00,
2013-07-08 13:09:00,80.9,70.6,30.01,WNW,288,4.0,15.0,71,0.00,,,0.17,334,Wunderground v.1.15,2013-07-08 17:09:00,
2013-07-08 13:15:00,80.7,71.2,30.00,WSW,248,6.0,15.0,73,0.00,,,0.17,302,Wunderground v.1.15,2013-07-08 17:15:00,
2013-07-08 13:21:00,80.7,72.0,30.01,West,276,3.0,15.0,75,0.00,,,0.17,380,Wunderground v.1.15,2013-07-08 17:21:00,
2013-07-08 13:27:00,80.9,71.4,30.01,WSW,242,1.0,15.0,73,0.00,,,0.17,462,Wunderground v.1.15,2013-07-08 17:27:00,
2013-07-08 13:33:00,81.0,72.0,30.00,SW,219,5.0,-999.0,73,-99.99,,,0.17,,weatherlink.com 1.10,2013-07-08 17:33:00,
2013-07-08 13:38:00,81.1,71.2,30.00,West,273,3.0,15.0,72,0.00,,,0.17,534,Wunderground v.1.15,2013-07-08 17:38:00,
2013-07-08 13:44:00,81.1,71.2,30.00,West,273,3.0,15.0,72,0.00,,,0.17,461,Wunderground v.1.15,2013-07-08 17:44:00,
2013-07-08 13:50:00,80.6,69.5,30.00,WNW,283,4.0,15.0,69,0.00,,,0.17,334,Wunderground v.1.15,2013-07-08 17:50:00,
2013-07-08 13:56:00,80.2,69.5,30.00,West,280,5.0,15.0,70,0.00,,,0.17,311,Wunderground v.1.15,2013-07-08 17:56:00,
2013-07-08 14:01:00,79.9,69.2,30.00,West,263,5.0,13.0,70,0.00,,,0.17,329,Wunderground v.1.15,2013-07-08 18:01:00,
2013-07-08 14:06:00,79.8,69.6,30.00,West,267,5.0,13.0,71,0.00,,,0.17,315,Wunderground v.1.15,2013-07-08 18:06:00,
2013-07-08 14:12:00,79.8,70.4,30.00,WSW,255,3.0,13.0,73,0.00,,,0.17,257,Wunderground v.1.15,2013-07-08 18:12:00,
2013-07-08 14:19:00,79.7,70.7,30.00,SW,233,2.0,13.0,74,0.00,,,0.17,223,Wunderground v.1.15,2013-07-08 18:19:00,
2013-07-08 14:29:00,79.2,70.2,30.00,SW,233,4.0,13.0,74,0.00,,,0.17,297,Wunderground v.1.15,2013-07-08 18:29:00,
2013-07-08 14:34:00,79.1,70.5,30.00,WSW,257,4.0,13.0,75,0.00,,,0.17,294,Wunderground v.1.15,2013-07-08 18:34:00,
2013-07-08 14:40:00,78.9,69.9,30.00,West,269,4.0,13.0,74,0.00,,,0.17,302,Wunderground v.1.15,2013-07-08 18:40:00,
2013-07-08 14:45:00,78.6,70.0,30.00,West,273,4.0,13.0,75,0.00,,,0.17,290,Wunderground v.1.15,2013-07-08 18:45:00,
2013-07-08 14:50:00,78.3,70.1,30.00,West,272,5.0,5.0,76,0.00,,,0.17,265,Wunderground v.1.15,2013-07-08 18:50:00,
2013-07-08 14:56:00,78.1,69.9,30.00,WSW,257,6.0,13.0,76,0.00,,,0.17,265,Wunderground v.1.15,2013-07-08 18:56:00,
2013-07-08 15:03:00,77.9,70.5,30.00,West,281,4.0,13.0,78,0.00,,,0.17,223,Wunderground v.1.15,2013-07-08 19:03:00,
2013-07-08 15:09:00,77.8,70.4,29.99,WSW,257,6.0,13.0,78,0.00,,,0.17,199,Wunderground v.1.15,2013-07-08 19:09:00,
2013-07-08 15:14:00,77.7,69.9,29.99,SW,217,6.0,13.0,77,0.00,,,0.17,153,Wunderground v.1.15,2013-07-08 19:14:00,
2013-07-08 15:20:00,77.4,69.6,29.99,West,274,8.0,8.0,77,0.00,,,0.17,151,Wunderground v.1.15,2013-07-08 19:20:00,
2013-07-08 15:27:00,77.1,69.7,29.99,West,271,6.0,13.0,78,0.00,,,0.17,144,Wunderground v.1.15,2013-07-08 19:27:00,
2013-07-08 15:34:00,76.6,70.3,29.99,WSW,248,4.0,13.0,81,0.00,,,0.17,178,Wunderground v.1.15,2013-07-08 19:34:00,
2013-07-08 15:40:00,76.5,70.9,29.99,WSW,244,2.0,2.0,83,0.00,,,0.17,211,Wunderground v.1.15,2013-07-08 19:40:00,
2013-07-08 15:46:00,76.5,70.6,29.99,West,270,1.0,13.0,82,0.00,,,0.17,239,Wunderground v.1.15,2013-07-08 19:46:00,
2013-07-08 15:51:00,76.5,70.9,29.98,West,262,1.0,5.0,83,0.00,,,0.17,197,Wunderground v.1.15,2013-07-08 19:51:00,
2013-07-08 15:56:00,76.6,71.0,29.98,SW,227,2.0,13.0,83,0.00,,,0.17,236,Wunderground v.1.15,2013-07-08 19:56:00,
2013-07-08 16:02:00,76.7,71.0,29.97,SW,225,6.0,-999.0,82,-99.99,,,0.17,,weatherlink.com 1.10,2013-07-08 20:02:00,
2013-07-08 16:07:00,76.7,70.8,29.97,West,261,5.0,21.0,82,0.00,,,0.17,209,Wunderground v.1.15,2013-07-08 20:07:00,
2013-07-08 16:13:00,76.7,70.8,29.96,SW,223,4.0,21.0,82,0.00,,,0.17,204,Wunderground v.1.15,2013-07-08 20:13:00,
2013-07-08 16:19:00,76.6,71.4,29.96,SW,217,4.0,21.0,84,0.00,,,0.17,186,Wunderground v.1.15,2013-07-08 20:19:00,
2013-07-08 16:24:00,76.5,70.2,29.96,SW,217,5.0,21.0,81,0.00,,,0.18,172,Wunderground v.1.15,2013-07-08 20:24:00,
2013-07-08 16:31:00,76.4,71.2,29.96,SW,222,4.0,21.0,84,0.00,,,0.18,162,Wunderground v.1.15,2013-07-08 20:31:00,
2013-07-08 16:36:00,76.3,71.1,29.96,SSW,205,4.0,21.0,84,0.00,,,0.18,179,Wunderground v.1.15,2013-07-08 20:36:00,
2013-07-08 16:43:00,76.3,71.1,29.96,WSW,242,3.0,21.0,84,0.00,,,0.18,174,Wunderground v.1.15,2013-07-08 20:43:00,
2013-07-08 16:50:00,76.4,71.2,29.96,SSW,206,3.0,3.0,84,0.00,,,0.18,156,Wunderground v.1.15,2013-07-08 20:50:00,
2013-07-08 16:55:00,76.5,70.9,29.95,SSW,205,2.0,21.0,83,0.00,,,0.18,137,Wunderground v.1.15,2013-07-08 20:55:00,
2013-07-08 17:00:00,76.6,70.7,29.95,SW,221,2.0,11.0,82,0.00,,,0.18,156,Wunderground v.1.15,2013-07-08 21:00:00,
2013-07-08 17:06:00,76.7,70.8,29.95,SSW,205,3.0,13.0,82,0.00,,,0.18,195,Wunderground v.1.15,2013-07-08 21:06:00,
2013-07-08 17:11:00,76.8,70.9,29.95,SW,225,2.0,13.0,82,0.00,,,0.18,153,Wunderground v.1.15,2013-07-08 21:11:00,
2013-07-08 17:16:00,76.8,70.9,29.94,SW,217,2.0,13.0,82,0.00,,,0.18,100,Wunderground v.1.15,2013-07-08 21:16:00,
2013-07-08 17:22:00,76.8,70.9,29.94,SSW,194,1.0,13.0,82,0.00,,,0.18,153,Wunderground v.1.15,2013-07-08 21:22:00,
2013-07-08 17:28:00,76.9,71.0,29.94,SW,225,1.0,13.0,82,0.00,,,0.18,134,Wunderground v.1.15,2013-07-08 21:28:00,
2013-07-08 17:33:00,77.0,71.1,29.94,SW,230,2.0,13.0,82,0.00,,,0.18,207,Wunderground v.1.15,2013-07-08 21:33:00,
2013-07-08 17:39:00,77.1,71.2,29.94,SSW,196,2.0,13.0,82,0.00,,,0.18,114,Wunderground v.1.15,2013-07-08 21:39:00,
2013-07-08 17:44:00,77.2,71.3,29.94,SW,214,1.0,13.0,82,0.00,,,0.18,109,Wunderground v.1.15,2013-07-08 21:44:00,
2013-07-08 17:50:00,77.1,71.2,29.94,SW,215,1.0,13.0,82,0.00,,,0.18,79,Wunderground v.1.15,2013-07-08 21:50:00,
2013-07-08 17:56:00,76.9,71.3,29.94,SW,233,3.0,13.0,83,0.00,,,0.18,42,Wunderground v.1.15,2013-07-08 21:56:00,
2013-07-08 18:02:00,76.6,72.0,29.94,SSW,205,3.0,-999.0,84,-99.99,,,0.18,,weatherlink.com 1.10,2013-07-08 22:02:00,
2013-07-08 18:14:00,75.9,71.8,29.94,SSW,194,1.0,10.0,87,0.00,,,0.19,62,Wunderground v.1.15,2013-07-08 22:14:00,
2013-07-08 18:19:00,75.7,71.9,29.94,SSW,210,0.0,10.0,88,0.00,,,0.19,84,Wunderground v.1.15,2013-07-08 22:19:00,
2013-07-08 18:24:00,75.7,71.9,29.93,SSW,210,0.0,10.0,88,0.00,,,0.19,62,Wunderground v.1.15,2013-07-08 22:24:00,
2013-07-08 18:29:00,75.7,72.2,29.94,SSW,210,0.0,10.0,89,0.00,,,0.19,32,Wunderground v.1.15,2013-07-08 22:29:00,
2013-07-08 18:35:00,75.6,72.1,29.93,SE,128,0.0,10.0,89,0.00,,,0.20,44,Wunderground v.1.15,2013-07-08 22:35:00,
2013-07-08 18:41:00,75.6,72.5,29.93,SE,128,0.0,10.0,90,0.00,,,0.20,65,Wunderground v.1.15,2013-07-08 22:41:00,
2013-07-08 18:47:00,75.5,72.0,29.94,SE,128,0.0,-999.0,89,-99.99,,,0.20,,weatherlink.com 1.10,2013-07-08 22:47:00,
2013-07-08 18:53:00,75.4,72.3,29.94,East,80,0.0,10.0,90,0.00,,,0.20,67,Wunderground v.1.15,2013-07-08 22:53:00,
2013-07-08 18:59:00,75.3,72.5,29.94,East,80,0.0,10.0,91,0.00,,,0.20,116,Wunderground v.1.15,2013-07-08 22:59:00,
2013-07-08 19:04:00,75.2,72.4,29.94,East,84,0.0,4.0,91,0.00,,,0.20,90,Wunderground v.1.15,2013-07-08 23:04:00,
2013-07-08 19:10:00,75.2,72.4,29.94,East,94,0.0,4.0,91,0.00,,,0.20,127,Wunderground v.1.15,2013-07-08 23:10:00,
2013-07-08 19:16:00,75.3,72.5,29.93,ESE,122,0.0,4.0,91,0.00,,,0.20,116,Wunderground v.1.15,2013-07-08 23:16:00,
2013-07-08 19:21:00,75.4,72.6,29.93,SE,134,0.0,4.0,91,0.00,,,0.20,79,Wunderground v.1.15,2013-07-08 23:21:00,
2013-07-08 19:27:00,75.4,72.6,29.94,ESE,121,0.0,4.0,91,0.00,,,0.20,58,Wunderground v.1.15,2013-07-08 23:27:00,
2013-07-08 19:33:00,75.4,72.6,29.94,SE,127,0.0,4.0,91,0.00,,,0.20,47,Wunderground v.1.15,2013-07-08 23:33:00,
2013-07-08 19:39:00,75.4,72.6,29.94,SE,133,0.0,4.0,91,0.00,,,0.20,58,Wunderground v.1.15,2013-07-08 23:39:00,
2013-07-08 19:44:00,75.5,73.0,29.94,SE,133,0.0,4.0,92,0.00,,,0.20,98,Wunderground v.1.15,2013-07-08 23:44:00,
2013-07-08 19:50:00,75.7,73.2,29.94,SE,133,0.0,4.0,92,0.00,,,0.20,86,Wunderground v.1.15,2013-07-08 23:50:00,
2013-07-08 19:55:00,75.8,73.3,29.94,SE,133,0.0,4.0,92,0.00,,,0.20,86,Wunderground v.1.15,2013-07-08 23:55:00,
2013-07-08 20:00:00,75.8,73.3,29.94,SE,133,0.0,0.0,92,0.00,,,0.20,79,Wunderground v.1.15,2013-07-09 00:00:00,
2013-07-08 20:06:00,75.9,73.4,29.94,South,178,0.0,1.0,92,0.00,,,0.20,47,Wunderground v.1.15,2013-07-09 00:06:00,
2013-07-08 20:12:00,75.9,73.4,29.94,South,178,0.0,1.0,92,0.00,,,0.20,12,Wunderground v.1.15,2013-07-09 00:12:00,
2013-07-08 20:17:00,75.8,73.3,29.94,South,178,0.0,1.0,92,0.00,,,0.20,9,Wunderground v.1.15,2013-07-09 00:17:00,
2013-07-08 20:27:00,75.7,73.2,29.94,South,178,0.0,1.0,92,0.00,,,0.20,5,Wunderground v.1.15,2013-07-09 00:27:00,
2013-07-08 20:32:00,75.7,74.0,29.94,South,178,0.0,-999.0,93,-99.99,,,0.20,,weatherlink.com 1.10,2013-07-09 00:32:00,
2013-07-08 20:38:00,75.6,73.4,29.93,South,178,0.0,1.0,93,0.00,,,0.20,0,Wunderground v.1.15,2013-07-09 00:38:00,
2013-07-08 20:45:00,75.7,73.5,29.94,South,178,0.0,1.0,93,0.00,,,0.20,9,Wunderground v.1.15,2013-07-09 00:45:00,
2013-07-08 20:51:00,75.7,73.5,29.94,South,178,0.0,1.0,93,0.00,,,0.20,9,Wunderground v.1.15,2013-07-09 00:51:00,
2013-07-08 20:56:00,75.7,73.5,29.93,South,178,0.0,1.0,93,0.00,,,0.20,5,Wunderground v.1.15,2013-07-09 00:56:00,
2013-07-08 21:02:00,75.7,73.5,29.93,South,178,0.0,0.0,93,0.00,,,0.20,5,Wunderground v.1.15,2013-07-09 01:02:00,
2013-07-08 21:07:00,75.7,73.8,29.93,South,178,0.0,0.0,94,0.00,,,0.20,5,Wunderground v.1.15,2013-07-09 01:07:00,
2013-07-08 21:12:00,75.7,73.8,29.92,South,178,0.0,0.0,94,0.00,,,0.20,0,Wunderground v.1.15,2013-07-09 01:12:00,
2013-07-08 21:17:00,75.7,73.8,29.92,South,178,0.0,0.0,94,0.00,,,0.20,0,Wunderground v.1.15,2013-07-09 01:17:00,
2013-07-08 21:23:00,75.7,73.8,29.92,South,178,0.0,0.0,94,0.00,,,0.20,0,Wunderground v.1.15,2013-07-09 01:23:00,
2013-07-08 21:28:00,75.7,73.8,29.93,South,178,0.0,0.0,94,0.00,,,0.20,0,Wunderground v.1.15,2013-07-09 01:28:00,
2013-07-08 21:33:00,75.8,73.6,29.92,South,178,0.0,0.0,93,0.00,,,0.20,0,Wunderground v.1.15,2013-07-09 01:33:00,
2013-07-08 21:39:00,76.0,73.5,29.93,South,178,0.0,0.0,92,0.00,,,0.20,0,Wunderground v.1.15,2013-07-09 01:39:00,
2013-07-08 21:45:00,76.2,73.7,29.93,South,178,0.0,0.0,92,0.00,,,0.20,0,Wunderground v.1.15,2013-07-09 01:45:00,
2013-07-08 21:50:00,76.4,73.6,29.93,SSW,204,0.0,0.0,91,0.00,,,0.20,0,Wunderground v.1.15,2013-07-09 01:50:00,
2013-07-08 21:56:00,76.7,73.5,29.92,SSW,203,0.0,0.0,90,0.00,,,0.20,0,Wunderground v.1.15,2013-07-09 01:56:00,
2013-07-08 22:03:00,76.9,73.4,29.92,SW,223,2.0,5.0,89,0.00,,,0.20,0,Wunderground v.1.15,2013-07-09 02:03:00,
2013-07-08 22:08:00,77.2,73.4,29.93,WSW,240,2.0,6.0,88,0.00,,,0.20,0,Wunderground v.1.15,2013-07-09 02:08:00,
2013-07-08 22:13:00,77.5,73.3,29.93,SSW,196,2.0,5.0,87,0.00,,,0.20,0,Wunderground v.1.15,2013-07-09 02:13:00,
2013-07-08 22:18:00,77.6,73.4,29.93,WSW,242,3.0,5.0,87,0.00,,,0.20,0,Wunderground v.1.15,2013-07-09 02:18:00,
2013-07-08 22:24:00,77.8,73.3,29.93,SW,231,3.0,5.0,86,0.00,,,0.20,0,Wunderground v.1.15,2013-07-09 02:24:00,
2013-07-08 22:29:00,77.8,72.9,29.93,WSW,244,3.0,5.0,85,0.00,,,0.20,0,Wunderground v.1.15,2013-07-09 02:29:00,
2013-07-08 22:35:00,77.9,73.0,29.93,WSW,241,4.0,-999.0,85,-99.99,,,0.20,,weatherlink.com 1.10,2013-07-09 02:35:00,
2013-07-08 22:40:00,77.9,73.0,29.93,SSW,196,3.0,3.0,85,0.00,,,0.20,0,Wunderground v.1.15,2013-07-09 02:40:00,
2013-07-08 22:47:00,77.9,72.7,29.93,SSW,211,3.0,6.0,84,0.00,,,0.20,0,Wunderground v.1.15,2013-07-09 02:47:00,
2013-07-08 22:52:00,78.0,72.8,29.94,SW,227,3.0,5.0,84,0.00,,,0.20,0,Wunderground v.1.15,2013-07-09 02:52:00,
2013-07-08 22:58:00,78.1,72.9,29.94,SW,219,3.0,9.0,84,0.00,,,0.20,0,Wunderground v.1.15,2013-07-09 02:58:00,
2013-07-08 23:04:00,78.2,73.0,29.93,WSW,253,5.0,-999.0,84,-99.99,,,0.20,,weatherlink.com 1.10,2013-07-09 03:04:00,
2013-07-08 23:10:00,78.1,72.9,29.93,SW,229,3.0,3.0,84,0.00,,,0.20,0,Wunderground v.1.15,2013-07-09 03:10:00,
2013-07-08 23:16:00,78.1,72.9,29.93,SSW,212,4.0,9.0,84,0.00,,,0.20,0,Wunderground v.1.15,2013-07-09 03:16:00,
2013-07-08 23:22:00,78.1,72.5,29.94,West,269,5.0,9.0,83,0.00,,,0.20,0,Wunderground v.1.15,2013-07-09 03:22:00,
2013-07-08 23:28:00,78.0,72.8,29.94,SW,229,4.0,9.0,84,0.00,,,0.20,0,Wunderground v.1.15,2013-07-09 03:28:00,
2013-07-08 23:35:00,78.0,72.8,29.94,SW,222,3.0,9.0,84,0.00,,,0.20,0,Wunderground v.1.15,2013-07-09 03:35:00,
2013-07-08 23:41:00,78.0,72.8,29.94,SSW,213,2.0,9.0,84,0.00,,,0.20,0,Wunderground v.1.15,2013-07-09 03:41:00,
2013-07-08 23:47:00,78.0,72.4,29.94,SW,230,3.0,9.0,83,0.00,,,0.20,0,Wunderground v.1.15,2013-07-09 03:47:00,
2013-07-08 23:53:00,78.2,72.6,29.94,SW,223,4.0,10.0,83,0.00,,,0.20,0,Wunderground v.1.15,2013-07-09 03:53:00,
2013-07-08 23:59:00,78.2,72.6,29.94,SW,226,4.0,10.0,83,0.00,,,0.20,0,Wunderground v.1.15,2013-07-09 03:59:00,